createdAt,value
2018-10-19T00:01:03.435Z,13.00
2018-10-19T00:03:32.056Z,13.00
2018-10-19T00:06:00.712Z,12.90
2018-10-19T00:08:29.354Z,13.00
2018-10-19T00:10:58.077Z,13.00
2018-10-19T00:13:26.748Z,13.00
2018-10-19T00:15:55.403Z,12.90
2018-10-19T00:18:24.038Z,12.80
2018-10-19T00:20:53.289Z,12.70
2018-10-19T00:23:21.928Z,12.70
2018-10-19T00:25:50.594Z,12.70
2018-10-19T00:28:19.199Z,12.70
2018-10-19T00:30:47.807Z,12.60
2018-10-19T00:33:16.503Z,12.60
2018-10-19T00:35:45.081Z,12.60
2018-10-19T00:38:13.714Z,12.50
2018-10-19T00:40:42.315Z,12.50
2018-10-19T00:43:10.936Z,12.40
2018-10-19T00:45:46.190Z,12.40
2018-10-19T00:48:16.942Z,12.40
2018-10-19T00:50:46.660Z,12.30
2018-10-19T00:53:16.409Z,12.30
2018-10-19T00:55:45.032Z,12.30
2018-10-19T00:58:13.668Z,12.30
2018-10-19T01:00:43.446Z,12.20
2018-10-19T01:03:12.212Z,12.20
2018-10-19T01:05:41.214Z,12.20
2018-10-19T01:08:10.536Z,12.10
2018-10-19T01:10:39.892Z,12.20
2018-10-19T01:13:08.523Z,12.20
2018-10-19T01:15:37.190Z,12.20
2018-10-19T01:18:05.844Z,12.20
2018-10-19T01:20:34.491Z,12.20
2018-10-19T01:23:03.143Z,12.20
2018-10-19T01:25:31.780Z,12.20
2018-10-19T01:28:00.431Z,12.20
2018-10-19T01:30:29.093Z,12.20
2018-10-19T01:32:57.753Z,12.20
2018-10-19T01:35:26.348Z,12.20
2018-10-19T01:37:54.887Z,12.10
2018-10-19T01:40:23.426Z,12.10
2018-10-19T01:42:51.970Z,12.10
2018-10-19T01:45:20.541Z,12.10
2018-10-19T01:47:49.041Z,12.10
2018-10-19T01:50:17.579Z,12.10
2018-10-19T01:52:46.108Z,12.10
2018-10-19T01:55:14.636Z,12.10
2018-10-19T01:57:43.145Z,12.00
2018-10-19T02:00:11.687Z,12.00
2018-10-19T02:02:40.213Z,12.00
2018-10-19T02:05:08.786Z,12.00
2018-10-19T02:07:37.280Z,12.10
2018-10-19T02:10:06.723Z,12.00
2018-10-19T02:12:35.228Z,12.00
2018-10-19T02:15:03.822Z,11.90
2018-10-19T02:17:32.307Z,12.00
2018-10-19T02:20:00.916Z,11.90
2018-10-19T02:22:29.426Z,11.90
2018-10-19T02:24:57.945Z,11.90
2018-10-19T02:27:26.464Z,11.80
2018-10-19T02:29:54.962Z,11.80
2018-10-19T02:32:23.489Z,11.70
2018-10-19T02:34:52.005Z,11.70
2018-10-19T02:37:20.600Z,11.70
2018-10-19T02:39:49.127Z,11.70
2018-10-19T02:42:17.625Z,11.80
2018-10-19T02:44:46.166Z,11.80
2018-10-19T02:47:14.705Z,11.80
2018-10-19T02:49:43.236Z,11.80
2018-10-19T02:52:11.757Z,11.70
2018-10-19T02:54:40.281Z,11.80
2018-10-19T02:57:08.853Z,11.80
2018-10-19T02:59:37.367Z,11.80
2018-10-19T03:02:06.384Z,11.80
2018-10-19T03:04:34.907Z,11.80
2018-10-19T03:07:03.518Z,11.80
2018-10-19T03:09:32.025Z,11.80
2018-10-19T03:12:00.536Z,11.90
2018-10-19T03:14:29.041Z,11.80
2018-10-19T03:16:57.589Z,11.90
2018-10-19T03:19:26.104Z,11.90
2018-10-19T03:21:54.652Z,11.90
2018-10-19T03:24:23.241Z,11.90
2018-10-19T03:26:51.831Z,11.90
2018-10-19T03:29:20.458Z,11.90
2018-10-19T03:31:48.897Z,11.90
2018-10-19T03:34:17.376Z,11.90
2018-10-19T03:36:45.911Z,11.90
2018-10-19T03:39:14.485Z,11.90
2018-10-19T03:41:42.999Z,11.90
2018-10-19T03:44:11.541Z,11.90
2018-10-19T03:46:40.055Z,11.90
2018-10-19T03:49:08.649Z,11.90
2018-10-19T03:51:37.131Z,11.90
2018-10-19T03:54:05.983Z,11.90
2018-10-19T03:56:34.535Z,11.90
2018-10-19T03:59:03.108Z,12.00
2018-10-19T04:01:31.605Z,11.90
2018-10-19T04:04:00.101Z,11.90
2018-10-19T04:06:28.641Z,11.90
2018-10-19T04:08:57.248Z,11.90
2018-10-19T04:11:25.692Z,11.90
2018-10-19T04:13:54.196Z,11.90
2018-10-19T04:16:23.076Z,11.90
2018-10-19T04:18:51.568Z,11.90
2018-10-19T04:21:20.281Z,11.90
2018-10-19T04:23:48.712Z,11.80
2018-10-19T04:26:17.221Z,11.80
2018-10-19T04:28:45.708Z,11.70
2018-10-19T04:31:14.196Z,11.70
2018-10-19T04:33:42.724Z,11.70
2018-10-19T04:36:11.560Z,11.70
2018-10-19T04:38:40.059Z,11.70
2018-10-19T04:41:08.590Z,11.70
2018-10-19T04:43:37.101Z,11.70
2018-10-19T04:46:06.074Z,11.70
2018-10-19T04:48:34.583Z,11.70
2018-10-19T04:51:03.186Z,11.70
2018-10-19T04:53:31.724Z,11.70
2018-10-19T04:56:00.210Z,11.70
2018-10-19T04:58:28.716Z,11.70
2018-10-19T05:00:57.272Z,11.70
2018-10-19T05:03:25.859Z,11.70
2018-10-19T05:05:54.393Z,11.70
2018-10-19T05:08:22.946Z,11.70
2018-10-19T05:10:51.468Z,11.60
2018-10-19T05:13:20.024Z,11.60
2018-10-19T05:15:48.548Z,11.60
2018-10-19T05:18:17.083Z,11.50
2018-10-19T05:20:45.622Z,11.60
2018-10-19T05:23:14.143Z,11.60
2018-10-19T05:25:42.604Z,11.50
2018-10-19T05:28:11.105Z,11.50
2018-10-19T05:30:39.607Z,11.50
2018-10-19T05:33:08.095Z,11.40
2018-10-19T05:35:36.612Z,11.40
2018-10-19T05:38:05.269Z,11.40
2018-10-19T05:40:33.871Z,11.40
2018-10-19T05:43:02.393Z,11.30
2018-10-19T05:45:30.889Z,11.30
2018-10-19T05:47:59.520Z,11.40
2018-10-19T05:50:28.003Z,11.30
2018-10-19T05:52:56.527Z,11.30
2018-10-19T05:55:25.047Z,11.30
2018-10-19T05:57:53.559Z,11.30
2018-10-19T06:00:22.111Z,11.20
2018-10-19T06:02:50.663Z,11.30
2018-10-19T06:05:19.169Z,11.20
2018-10-19T06:07:47.688Z,11.30
2018-10-19T06:10:16.180Z,11.20
2018-10-19T06:12:44.693Z,11.20
2018-10-19T06:15:13.224Z,11.30
2018-10-19T06:17:41.771Z,11.20
2018-10-19T06:20:10.332Z,11.30
2018-10-19T06:22:38.844Z,11.30
2018-10-19T06:25:07.420Z,11.30
2018-10-19T06:27:36.052Z,11.20
2018-10-19T06:30:05.044Z,11.30
2018-10-19T06:32:33.639Z,11.30
2018-10-19T06:35:02.236Z,11.30
2018-10-19T06:37:30.733Z,11.30
2018-10-19T06:40:00.172Z,11.30
2018-10-19T06:42:28.721Z,11.30
2018-10-19T06:44:57.220Z,11.30
2018-10-19T06:47:25.813Z,11.30
2018-10-19T06:49:54.265Z,11.30
2018-10-19T06:52:22.796Z,11.30
2018-10-19T06:54:51.344Z,11.30
2018-10-19T06:57:19.853Z,11.30
2018-10-19T06:59:48.377Z,11.30
2018-10-19T07:02:17.004Z,11.40
2018-10-19T07:04:45.445Z,11.30
2018-10-19T07:07:13.985Z,11.30
2018-10-19T07:09:42.501Z,11.30
2018-10-19T07:12:11.028Z,11.30
2018-10-19T07:14:39.715Z,11.30
2018-10-19T07:17:08.300Z,11.30
2018-10-19T07:19:36.752Z,11.30
2018-10-19T07:22:05.495Z,11.40
2018-10-19T07:24:34.024Z,11.40
2018-10-19T07:27:02.579Z,11.40
2018-10-19T07:29:31.092Z,11.40
2018-10-19T07:31:59.708Z,11.40
2018-10-19T07:34:28.203Z,11.40
2018-10-19T07:36:56.697Z,11.50
2018-10-19T07:39:25.222Z,11.50
2018-10-19T07:41:54.031Z,11.50
2018-10-19T07:44:22.581Z,11.50
2018-10-19T07:46:51.084Z,11.50
2018-10-19T07:49:19.571Z,11.50
2018-10-19T07:51:48.103Z,11.60
2018-10-19T07:54:16.677Z,11.60
2018-10-19T07:56:45.288Z,11.60
2018-10-19T07:59:13.839Z,11.60
2018-10-19T08:01:42.331Z,11.60
2018-10-19T08:04:10.835Z,11.60
2018-10-19T08:06:39.376Z,11.50
2018-10-19T08:09:09.341Z,11.50
2018-10-19T08:11:38.024Z,11.50
2018-10-19T08:14:06.695Z,11.40
2018-10-19T08:16:35.302Z,11.50
2018-10-19T08:19:03.896Z,11.40
2018-10-19T08:21:32.418Z,11.50
2018-10-19T08:24:00.897Z,11.40
2018-10-19T08:26:29.400Z,11.40
2018-10-19T08:28:57.958Z,11.40
2018-10-19T08:31:26.471Z,11.40
2018-10-19T08:33:54.973Z,11.40
2018-10-19T08:36:23.481Z,11.40
2018-10-19T08:38:52.035Z,11.50
2018-10-19T08:41:20.712Z,11.50
2018-10-19T08:43:49.750Z,11.50
2018-10-19T08:46:23.604Z,11.50
2018-10-19T08:48:52.137Z,11.50
2018-10-19T08:51:20.668Z,11.50
2018-10-19T08:53:49.204Z,11.50
2018-10-19T08:56:17.684Z,11.40
2018-10-19T08:58:46.164Z,11.40
2018-10-19T09:01:14.686Z,11.40
2018-10-19T09:03:43.189Z,11.50
2018-10-19T09:06:11.829Z,11.60
2018-10-19T09:08:40.344Z,11.50
2018-10-19T09:11:08.904Z,11.50
2018-10-19T09:13:37.930Z,11.50
2018-10-19T09:16:06.908Z,11.50
2018-10-19T09:18:35.435Z,11.50
2018-10-19T09:21:04.099Z,11.50
2018-10-19T09:23:33.306Z,11.50
2018-10-19T09:26:01.873Z,11.60
2018-10-19T09:28:30.425Z,11.60
2018-10-19T09:30:58.953Z,11.60
2018-10-19T09:33:27.451Z,11.60
2018-10-19T09:35:56.117Z,11.50
2018-10-19T09:38:24.648Z,11.50
2018-10-19T09:40:53.194Z,11.50
2018-10-19T09:43:21.690Z,11.50
2018-10-19T09:45:50.230Z,11.50
2018-10-19T09:48:18.995Z,11.60
2018-10-19T09:50:47.502Z,11.60
2018-10-19T09:53:16.090Z,11.70
2018-10-19T09:55:44.532Z,11.70
2018-10-19T09:58:13.025Z,11.70
2018-10-19T10:00:46.789Z,11.70
2018-10-19T10:03:15.892Z,11.70
2018-10-19T10:05:44.492Z,11.70
2018-10-19T10:08:13.008Z,11.70
2018-10-19T10:10:41.631Z,11.80
2018-10-19T10:13:10.185Z,11.80
2018-10-19T10:15:38.766Z,11.80
2018-10-19T10:18:07.296Z,11.80
2018-10-19T10:20:36.044Z,11.90
2018-10-19T10:23:05.183Z,11.90
2018-10-19T10:25:33.691Z,11.90
2018-10-19T10:28:02.425Z,11.90
2018-10-19T10:30:30.936Z,11.90
2018-10-19T10:32:59.423Z,11.90
2018-10-19T10:35:27.954Z,11.90
2018-10-19T10:37:56.470Z,11.90
2018-10-19T10:40:25.047Z,11.90
2018-10-19T10:42:53.617Z,11.90
2018-10-19T10:45:22.117Z,11.90
2018-10-19T10:47:50.655Z,11.90
2018-10-19T10:50:19.203Z,12.00
2018-10-19T10:52:48.040Z,11.90
2018-10-19T10:55:16.639Z,11.90
2018-10-19T10:57:45.430Z,11.90
2018-10-19T11:00:13.955Z,11.90
2018-10-19T11:02:42.468Z,11.90
2018-10-19T11:05:10.989Z,11.90
2018-10-19T11:07:39.714Z,11.90
2018-10-19T11:10:08.797Z,11.90
2018-10-19T11:12:37.219Z,12.00
2018-10-19T11:15:06.752Z,12.00
2018-10-19T11:17:35.303Z,12.10
2018-10-19T11:20:04.372Z,12.20
2018-10-19T11:22:32.848Z,12.20
2018-10-19T11:25:01.493Z,12.20
2018-10-19T11:27:30.007Z,12.20
2018-10-19T11:29:58.499Z,12.20
2018-10-19T11:32:27.096Z,12.20
2018-10-19T11:34:55.715Z,12.20
2018-10-19T11:37:24.208Z,12.30
2018-10-19T11:40:04.038Z,12.30
2018-10-19T11:42:32.505Z,12.20
2018-10-19T11:45:01.016Z,12.20
2018-10-19T11:47:29.524Z,12.20
2018-10-19T11:49:58.073Z,12.20
2018-10-19T11:52:26.853Z,12.20
2018-10-19T11:54:55.345Z,12.30
2018-10-19T11:57:23.861Z,12.30
2018-10-19T11:59:52.363Z,12.30
2018-10-19T12:02:20.854Z,12.30
2018-10-19T12:04:49.451Z,12.30
2018-10-19T12:07:18.000Z,12.30
2018-10-19T12:09:46.531Z,12.30
2018-10-19T12:12:15.068Z,12.30
2018-10-19T12:14:43.560Z,12.30
2018-10-19T12:17:12.161Z,12.40
2018-10-19T12:19:40.810Z,12.40
2018-10-19T12:22:09.327Z,12.40
2018-10-19T12:24:38.277Z,12.50
2018-10-19T12:27:06.891Z,12.50
2018-10-19T12:29:35.366Z,12.50
2018-10-19T12:32:03.905Z,12.60
2018-10-19T12:34:32.444Z,12.60
2018-10-19T12:37:01.084Z,12.50
2018-10-19T12:39:30.192Z,12.50
2018-10-19T12:41:58.759Z,12.40
2018-10-19T12:44:27.287Z,12.40
2018-10-19T12:47:06.969Z,12.40
2018-10-19T12:49:35.855Z,12.50
2018-10-19T12:52:04.533Z,12.50
2018-10-19T12:54:33.156Z,12.50
2018-10-19T12:57:01.667Z,12.50
2018-10-19T12:59:30.147Z,12.50
2018-10-19T13:01:58.689Z,12.50
2018-10-19T13:04:27.199Z,12.50
2018-10-19T13:06:55.780Z,12.50
2018-10-19T13:09:24.332Z,12.50
2018-10-19T13:11:52.887Z,12.50
2018-10-19T13:14:21.405Z,12.50
2018-10-19T13:16:49.920Z,12.50
2018-10-19T13:19:18.444Z,12.40
2018-10-19T13:21:46.958Z,12.30
2018-10-19T13:24:15.615Z,12.30
2018-10-19T13:26:44.090Z,12.30
2018-10-19T13:29:12.607Z,12.40
2018-10-19T13:31:41.130Z,12.40
2018-10-19T13:34:09.663Z,12.40
2018-10-19T13:36:38.268Z,12.40
2018-10-19T13:39:10.426Z,12.40
2018-10-19T13:41:39.186Z,12.40
2018-10-19T13:44:07.727Z,12.40
2018-10-19T13:46:36.359Z,12.30
2018-10-19T13:49:06.228Z,12.40
2018-10-19T13:51:35.256Z,12.40
2018-10-19T13:54:04.271Z,12.40
2018-10-19T13:56:33.362Z,12.50
2018-10-19T13:59:01.856Z,12.40
2018-10-19T14:01:30.423Z,12.40
2018-10-19T14:03:58.937Z,12.40
2018-10-19T14:06:27.439Z,12.40
2018-10-19T14:08:56.303Z,12.50
2018-10-19T14:11:24.808Z,12.50
2018-10-19T14:13:53.321Z,12.50
2018-10-19T14:16:21.824Z,12.50
2018-10-19T14:18:50.723Z,12.50
2018-10-19T14:21:19.227Z,12.50
2018-10-19T14:23:47.743Z,12.50
2018-10-19T14:26:16.257Z,12.50
2018-10-19T14:28:44.795Z,12.40
2018-10-19T14:31:13.297Z,12.50
2018-10-19T14:33:41.870Z,12.50
2018-10-19T14:36:10.328Z,12.50
2018-10-19T14:38:38.811Z,12.50
2018-10-19T14:41:07.350Z,12.50
2018-10-19T14:43:35.824Z,12.50
2018-10-19T14:46:04.361Z,12.50
2018-10-19T14:48:32.904Z,12.50
2018-10-19T14:51:01.454Z,12.50
2018-10-19T14:53:29.991Z,12.40
2018-10-19T14:55:58.495Z,12.40
2018-10-19T14:58:26.992Z,12.40
2018-10-19T15:00:55.477Z,12.40
2018-10-19T15:03:23.972Z,12.40
2018-10-19T15:05:52.484Z,12.40
2018-10-19T15:08:21.048Z,12.30
2018-10-19T15:10:49.739Z,12.30
2018-10-19T15:13:18.286Z,12.30
2018-10-19T15:15:46.900Z,12.30
2018-10-19T15:18:15.497Z,12.30
2018-10-19T15:20:43.942Z,12.30
2018-10-19T15:23:12.458Z,12.30
2018-10-19T15:25:40.947Z,12.30
2018-10-19T15:28:09.493Z,12.20
2018-10-19T15:30:37.983Z,12.20
2018-10-19T15:33:06.795Z,12.30
2018-10-19T15:35:35.257Z,12.20
2018-10-19T15:38:03.790Z,12.30
2018-10-19T15:40:32.266Z,12.30
2018-10-19T15:43:00.768Z,12.30
2018-10-19T15:45:29.372Z,12.30
2018-10-19T15:47:57.948Z,12.20
2018-10-19T15:50:26.447Z,12.20
2018-10-19T15:52:54.920Z,12.20
2018-10-19T15:55:23.424Z,12.20
2018-10-19T15:57:51.939Z,12.10
2018-10-19T16:00:20.561Z,12.10
2018-10-19T16:02:48.985Z,12.10
2018-10-19T16:05:17.505Z,12.10
2018-10-19T16:07:46.027Z,12.10
2018-10-19T16:10:14.709Z,12.10
2018-10-19T16:12:43.195Z,12.00
2018-10-19T16:15:11.921Z,12.00
2018-10-19T16:17:42.170Z,12.00
2018-10-19T16:20:11.156Z,12.00
2018-10-19T16:22:41.224Z,12.00
2018-10-19T16:25:09.744Z,12.00
2018-10-19T16:27:39.264Z,11.90
2018-10-19T16:30:09.142Z,11.90
2018-10-19T16:32:38.393Z,11.90
2018-10-19T16:35:07.288Z,11.90
2018-10-19T16:37:36.096Z,11.90
2018-10-19T16:40:05.760Z,11.90
2018-10-19T16:42:34.288Z,11.80
2018-10-19T16:45:02.856Z,11.80
2018-10-19T16:47:32.105Z,11.80
2018-10-19T16:50:00.628Z,11.80
2018-10-19T16:52:29.300Z,11.80
2018-10-19T16:54:57.743Z,11.80
2018-10-19T16:57:26.261Z,11.80
2018-10-19T16:59:54.782Z,11.70
2018-10-19T17:02:23.303Z,11.70
2018-10-19T17:04:51.873Z,11.70
2018-10-19T17:07:20.368Z,11.70
2018-10-19T17:09:48.866Z,11.70
2018-10-19T17:12:17.390Z,11.70
2018-10-19T17:14:45.889Z,11.70
2018-10-19T17:17:14.432Z,11.70
2018-10-19T17:19:42.940Z,11.60
2018-10-19T17:22:11.473Z,11.60
2018-10-19T17:24:39.953Z,11.60
2018-10-19T17:27:08.630Z,11.60
2018-10-19T17:29:37.138Z,11.60
2018-10-19T17:32:05.776Z,11.50
2018-10-19T17:34:34.289Z,11.50
2018-10-19T17:37:02.847Z,11.40
2018-10-19T17:39:31.390Z,11.50
2018-10-19T17:41:59.929Z,11.50
2018-10-19T17:44:28.536Z,11.50
2018-10-19T17:46:57.085Z,11.50
2018-10-19T17:49:25.548Z,11.50
2018-10-19T17:51:54.055Z,11.40
2018-10-19T17:54:22.613Z,11.40
2018-10-19T17:56:51.080Z,11.40
2018-10-19T17:59:19.628Z,11.40
2018-10-19T18:01:48.148Z,11.30
2018-10-19T18:04:16.655Z,11.30
2018-10-19T18:06:45.260Z,11.30
2018-10-19T18:09:13.940Z,11.30
2018-10-19T18:11:42.436Z,11.30
2018-10-19T18:14:10.975Z,11.30
2018-10-19T18:16:39.499Z,11.30
2018-10-19T18:19:07.997Z,11.30
2018-10-19T18:21:36.617Z,11.30
2018-10-19T18:24:05.332Z,11.30
2018-10-19T18:26:33.843Z,11.30
2018-10-19T18:29:02.425Z,11.20
2018-10-19T18:31:30.876Z,11.20
2018-10-19T18:33:59.457Z,11.20
2018-10-19T18:36:27.997Z,11.20
2018-10-19T18:38:56.501Z,11.20
2018-10-19T18:41:25.206Z,11.20
2018-10-19T18:43:53.932Z,11.10
2018-10-19T18:46:22.437Z,11.10
2018-10-19T18:48:51.023Z,11.10
2018-10-19T18:51:19.641Z,11.20
2018-10-19T18:53:48.272Z,11.20
2018-10-19T18:56:16.973Z,11.20
2018-10-19T18:58:45.415Z,11.10
2018-10-19T19:01:14.073Z,11.10
2018-10-19T19:03:42.737Z,11.10
2018-10-19T19:06:11.341Z,11.10
2018-10-19T19:08:39.906Z,11.10
2018-10-19T19:11:08.502Z,11.20
2018-10-19T19:13:41.180Z,11.10
2018-10-19T19:16:15.296Z,11.10
2018-10-19T19:18:43.943Z,11.10
2018-10-19T19:21:12.479Z,11.10
2018-10-19T19:23:46.380Z,11.20
2018-10-19T19:26:15.931Z,11.20
2018-10-19T19:28:44.407Z,11.20
2018-10-19T19:31:13.325Z,11.10
2018-10-19T19:33:47.248Z,11.10
2018-10-19T19:36:15.786Z,11.10
2018-10-19T19:38:44.427Z,11.10
2018-10-19T19:41:18.232Z,11.10
2018-10-19T19:43:46.738Z,11.00
2018-10-19T19:46:15.234Z,11.10
2018-10-19T19:48:49.240Z,11.00
2018-10-19T19:51:17.765Z,11.00
2018-10-19T19:53:46.255Z,11.10
2018-10-19T19:56:14.900Z,11.00
2018-10-19T19:58:43.411Z,11.10
2018-10-19T20:01:11.968Z,11.10
2018-10-19T20:03:40.490Z,11.00
2018-10-19T20:06:09.089Z,11.00
2018-10-19T20:08:37.775Z,11.00
2018-10-19T20:11:06.962Z,11.00
2018-10-19T20:13:35.568Z,11.00
2018-10-19T20:16:04.084Z,11.00
2018-10-19T20:18:32.611Z,11.00
2018-10-19T20:21:01.839Z,11.00
2018-10-19T20:23:31.198Z,11.00
2018-10-19T20:25:59.694Z,11.00
2018-10-19T20:28:28.549Z,11.00
2018-10-19T20:30:57.056Z,11.00
2018-10-19T20:33:25.628Z,11.00
2018-10-19T20:35:54.144Z,11.00
2018-10-19T20:38:22.656Z,11.00
2018-10-19T20:40:51.289Z,11.00
2018-10-19T20:43:19.771Z,11.00
2018-10-19T20:45:48.377Z,11.00
2018-10-19T20:48:16.975Z,10.90
2018-10-19T20:50:45.619Z,10.90
2018-10-19T20:53:14.365Z,10.90
2018-10-19T20:55:42.778Z,10.90
2018-10-19T20:58:11.632Z,10.90
2018-10-19T21:00:40.301Z,10.90
2018-10-19T21:03:08.912Z,10.90
2018-10-19T21:05:37.421Z,10.90
2018-10-19T21:08:06.507Z,10.90
2018-10-19T21:10:35.172Z,10.90
2018-10-19T21:13:03.725Z,10.90
2018-10-19T21:15:32.297Z,11.00
2018-10-19T21:18:00.915Z,11.00
2018-10-19T21:20:29.459Z,11.00
2018-10-19T21:22:57.984Z,10.90
2018-10-19T21:25:26.536Z,10.90
2018-10-19T21:27:55.106Z,10.90
2018-10-19T21:30:23.604Z,10.90
2018-10-19T21:32:52.140Z,10.80
2018-10-19T21:35:20.660Z,10.80
2018-10-19T21:37:49.283Z,10.80
2018-10-19T21:40:17.789Z,10.80
2018-10-19T21:42:46.524Z,10.80
2018-10-19T21:45:14.986Z,10.80
2018-10-19T21:47:43.669Z,10.80
2018-10-19T21:50:12.248Z,10.90
2018-10-19T21:52:40.809Z,10.80
2018-10-19T21:55:10.949Z,10.80
2018-10-19T21:57:39.938Z,10.80
2018-10-19T22:00:09.648Z,10.80
2018-10-19T22:02:38.255Z,10.80
2018-10-19T22:05:07.919Z,10.80
2018-10-19T22:07:36.486Z,10.80
2018-10-19T22:10:04.988Z,10.80
2018-10-19T22:12:33.595Z,10.80
2018-10-19T22:15:02.173Z,10.80
2018-10-19T22:17:30.768Z,10.80
2018-10-19T22:19:59.276Z,10.80
2018-10-19T22:22:27.790Z,10.80
2018-10-19T22:24:56.364Z,10.80
2018-10-19T22:27:25.169Z,10.80
2018-10-19T22:29:53.773Z,10.80
2018-10-19T22:32:22.325Z,10.80
2018-10-19T22:34:50.908Z,10.80
2018-10-19T22:37:19.420Z,10.80
2018-10-19T22:39:47.916Z,10.70
2018-10-19T22:42:16.434Z,10.70
2018-10-19T22:44:45.051Z,10.70
2018-10-19T22:47:13.696Z,10.70
2018-10-19T22:49:42.181Z,10.60
2018-10-19T22:52:10.728Z,10.60
2018-10-19T22:54:39.254Z,10.60
2018-10-19T22:57:08.072Z,10.50
2018-10-19T22:59:36.580Z,10.50
2018-10-19T23:02:05.595Z,10.50
2018-10-19T23:04:34.162Z,10.50
2018-10-19T23:07:02.712Z,10.50
2018-10-19T23:09:31.288Z,10.50
2018-10-19T23:11:59.753Z,10.50
2018-10-19T23:14:28.294Z,10.40
2018-10-19T23:16:56.842Z,10.40
2018-10-19T23:19:25.326Z,10.40
2018-10-19T23:21:53.863Z,10.40
2018-10-19T23:24:22.447Z,10.40
2018-10-19T23:26:50.997Z,10.30
2018-10-19T23:29:19.502Z,10.40
2018-10-19T23:31:48.174Z,10.30
2018-10-19T23:34:16.776Z,10.30
2018-10-19T23:36:45.320Z,10.20
2018-10-19T23:39:13.860Z,10.20
2018-10-19T23:41:42.494Z,10.20
2018-10-19T23:44:11.086Z,10.20
2018-10-19T23:46:39.625Z,10.10
2018-10-19T23:49:08.765Z,10.00
2018-10-19T23:51:37.269Z,10.00
2018-10-19T23:54:06.180Z,9.90
2018-10-19T23:56:34.642Z,9.90
2018-10-19T23:59:03.363Z,9.90
